Coventryville, New York
Current Conditions -  °F | °C
As of 3:53 PM on Friday 31 Oct 2014 (Local Time) from KBGM Reporting Station
Overcast Overcast  
Wind Chill: 44°   Ceiling: 12000
Heat Index: 47°   Visibility: 10mi
Dew Point: 30°   Wind: 7mph
Humidity: 52%   Direction: 110°ESE
Pressure: 29.89"   Gusts: NA
Location:  42.3372°N, 75.5118°W
Report Text: KBGM 311953Z 11006KT 10SM OVC120 08/M01 A2989 RMK AO2 SLP132 T00831011
Loading
Personal Weather Stations






























Interactive Weather Map
Tropical Storm Tracking
New forecast layout! Learn more

10-Day Weather Forecast

Advertisements
Track Severe Weather on mobile